createdAt,value
2019-03-06T00:00:53.283Z,7.80
2019-03-06T00:03:22.900Z,8.60
2019-03-06T00:05:52.480Z,7.63
2019-03-06T00:08:21.908Z,9.13
2019-03-06T00:10:51.521Z,9.47
2019-03-06T00:13:20.982Z,11.30
2019-03-06T00:15:51.371Z,11.30
2019-03-06T00:18:21.273Z,12.17
2019-03-06T00:20:50.731Z,13.07
2019-03-06T00:23:20.203Z,11.67
2019-03-06T00:25:49.721Z,16.13
2019-03-06T00:28:19.196Z,16.47
2019-03-06T00:30:48.664Z,9.27
2019-03-06T00:33:18.256Z,11.40
2019-03-06T00:35:49.874Z,11.50
2019-03-06T00:38:19.298Z,16.37
2019-03-06T00:41:17.065Z,8.67
2019-03-06T00:43:46.576Z,16.30
2019-03-06T00:46:16.166Z,13.57
2019-03-06T00:48:45.695Z,15.33
2019-03-06T00:51:15.203Z,16.93
2019-03-06T00:53:44.704Z,15.40
2019-03-06T00:56:14.196Z,7.07
2019-03-06T00:58:43.787Z,10.33
2019-03-06T01:01:13.210Z,11.77
2019-03-06T01:03:42.657Z,14.30
2019-03-06T01:06:12.147Z,15.20
2019-03-06T01:08:41.769Z,15.73
2019-03-06T01:11:11.245Z,15.63
2019-03-06T01:13:40.738Z,8.27
2019-03-06T01:16:10.193Z,11.20
2019-03-06T01:18:39.679Z,12.47
2019-03-06T01:21:09.157Z,6.80
2019-03-06T01:23:38.641Z,11.10
2019-03-06T01:26:08.242Z,9.07
2019-03-06T01:28:37.719Z,12.80
2019-03-06T01:31:07.557Z,13.30
2019-03-06T01:33:49.329Z,12.77
2019-03-06T01:36:25.495Z,10.80
2019-03-06T01:39:02.011Z,14.70
2019-03-06T01:41:49.682Z,14.23
2019-03-06T01:44:33.183Z,11.20
2019-03-06T01:47:02.648Z,14.80
2019-03-06T01:49:32.158Z,12.00
2019-03-06T01:52:01.860Z,15.87
2019-03-06T01:54:31.313Z,15.23
2019-03-06T01:57:00.834Z,10.57
2019-03-06T01:59:30.594Z,9.50
2019-03-06T02:02:00.081Z,12.13
2019-03-06T02:04:29.676Z,13.73
2019-03-06T02:06:59.176Z,13.30
2019-03-06T02:09:29.598Z,13.33
2019-03-06T02:11:59.164Z,13.50
2019-03-06T02:14:29.054Z,6.97
2019-03-06T02:16:58.734Z,7.70
2019-03-06T02:19:28.254Z,11.53
2019-03-06T02:21:57.743Z,11.90
2019-03-06T02:24:27.184Z,8.77
2019-03-06T02:26:56.730Z,5.13
2019-03-06T02:29:26.209Z,3.93
2019-03-06T02:31:55.763Z,3.30
2019-03-06T02:34:25.382Z,2.67
2019-03-06T02:36:54.858Z,2.33
2019-03-06T02:39:24.339Z,1.83
2019-03-06T02:41:53.988Z,1.87
2019-03-06T02:44:23.448Z,1.47
2019-03-06T02:46:52.941Z,1.40
2019-03-06T02:49:22.427Z,1.40
2019-03-06T02:51:52.003Z,1.23
2019-03-06T02:54:21.458Z,1.00
2019-03-06T02:56:50.986Z,1.23
2019-03-06T02:59:57.523Z,1.10
2019-03-06T03:02:43.613Z,1.10
2019-03-06T03:05:35.042Z,0.83
2019-03-06T03:08:04.823Z,0.97
2019-03-06T03:10:34.312Z,1.30
2019-03-06T03:13:04.209Z,1.23
2019-03-06T03:15:34.053Z,2.07
2019-03-06T03:18:03.520Z,1.90
2019-03-06T03:20:35.738Z,2.57
2019-03-06T03:23:05.629Z,1.83
2019-03-06T03:25:35.099Z,1.93
2019-03-06T03:28:04.567Z,1.43
2019-03-06T03:30:34.168Z,1.50
2019-03-06T03:33:03.604Z,1.10
2019-03-06T03:35:33.113Z,2.00
2019-03-06T03:38:02.717Z,1.97
2019-03-06T03:40:32.184Z,1.77
2019-03-06T03:43:01.672Z,2.00
2019-03-06T03:45:31.317Z,2.00
2019-03-06T03:48:00.822Z,2.07
2019-03-06T03:50:30.304Z,1.97
2019-03-06T03:52:59.956Z,2.37
2019-03-06T03:55:29.448Z,2.33
2019-03-06T03:57:58.986Z,2.57
2019-03-06T04:00:28.427Z,2.30
2019-03-06T04:02:57.979Z,2.97
2019-03-06T04:05:27.439Z,2.67
2019-03-06T04:07:56.932Z,2.40
2019-03-06T04:10:26.374Z,3.43
2019-03-06T04:12:55.805Z,2.60
2019-03-06T04:15:25.335Z,2.90
2019-03-06T04:17:54.850Z,2.67
2019-03-06T04:20:24.320Z,3.27
2019-03-06T04:22:53.766Z,2.87
2019-03-06T04:25:23.341Z,2.70
2019-03-06T04:27:53.038Z,2.70
2019-03-06T04:30:22.491Z,3.20
2019-03-06T04:32:51.896Z,3.03
2019-03-06T04:35:21.349Z,2.90
2019-03-06T04:37:50.786Z,3.47
2019-03-06T04:40:20.294Z,3.13
2019-03-06T04:42:49.736Z,3.03
2019-03-06T04:45:19.130Z,2.77
2019-03-06T04:47:48.552Z,3.10
2019-03-06T04:50:17.979Z,3.37
2019-03-06T04:52:47.418Z,3.20
2019-03-06T04:55:17.040Z,4.00
2019-03-06T04:57:46.468Z,3.87
2019-03-06T05:00:15.998Z,3.90
2019-03-06T05:02:45.409Z,3.63
2019-03-06T05:05:14.822Z,4.07
2019-03-06T05:07:44.245Z,3.77
2019-03-06T05:10:14.018Z,4.13
2019-03-06T05:12:45.957Z,4.19
2019-03-06T05:15:15.445Z,4.30
2019-03-06T05:17:53.205Z,4.17
2019-03-06T05:20:22.652Z,4.70
2019-03-06T05:22:52.040Z,4.90
2019-03-06T05:25:21.470Z,5.03
2019-03-06T05:27:50.896Z,4.73
2019-03-06T05:30:22.023Z,4.90
2019-03-06T05:32:51.529Z,4.60
2019-03-06T05:35:47.937Z,5.00
2019-03-06T05:38:24.240Z,5.47
2019-03-06T05:40:53.903Z,5.80
2019-03-06T05:43:23.367Z,5.70
2019-03-06T05:45:52.803Z,5.53
2019-03-06T05:48:22.215Z,5.07
2019-03-06T05:50:51.871Z,5.97
2019-03-06T05:53:21.276Z,6.20
2019-03-06T05:55:50.696Z,5.60
2019-03-06T05:58:20.105Z,5.70
2019-03-06T06:00:49.601Z,6.03
2019-03-06T06:03:19.007Z,6.30
2019-03-06T06:05:48.453Z,5.80
2019-03-06T06:08:18.402Z,6.17
2019-03-06T06:10:47.839Z,6.37
2019-03-06T06:13:17.300Z,7.43
2019-03-06T06:15:46.733Z,6.47
2019-03-06T06:18:16.240Z,7.80
2019-03-06T06:20:46.798Z,8.17
2019-03-06T06:23:44.401Z,7.73
2019-03-06T06:26:13.925Z,6.63
2019-03-06T06:28:43.380Z,7.90
2019-03-06T06:31:12.862Z,7.53
2019-03-06T06:33:42.309Z,7.03
2019-03-06T06:36:12.209Z,6.83
2019-03-06T06:38:41.648Z,7.50
2019-03-06T06:41:11.054Z,7.90
2019-03-06T06:43:40.652Z,7.77
2019-03-06T06:46:10.137Z,7.30
2019-03-06T06:48:39.588Z,8.23
2019-03-06T06:51:31.930Z,8.30
2019-03-06T06:54:27.649Z,8.67
2019-03-06T06:57:35.125Z,7.07
2019-03-06T07:01:11.841Z,7.23
2019-03-06T07:04:15.283Z,6.53
2019-03-06T07:07:03.674Z,5.83
2019-03-06T07:10:04.109Z,5.53
2019-03-06T07:12:52.724Z,5.10
2019-03-06T07:15:41.137Z,6.53
2019-03-06T07:18:41.851Z,5.87
2019-03-06T07:21:18.634Z,6.50
2019-03-06T07:23:54.277Z,5.90
2019-03-06T07:26:35.664Z,6.07
2019-03-06T07:29:11.012Z,6.33
2019-03-06T07:32:05.925Z,5.37
2019-03-06T07:34:46.207Z,5.40
2019-03-06T07:37:28.536Z,5.33
2019-03-06T07:40:01.468Z,5.33
2019-03-06T07:42:42.761Z,6.27
2019-03-06T07:46:13.106Z,5.93
2019-03-06T07:49:04.159Z,5.33
2019-03-06T07:51:56.558Z,6.43
2019-03-06T07:54:47.967Z,6.23
2019-03-06T07:57:34.655Z,6.50
2019-03-06T08:00:07.813Z,5.50
2019-03-06T08:03:18.134Z,5.80
2019-03-06T08:05:47.558Z,4.77
2019-03-06T08:08:16.990Z,5.20
2019-03-06T08:10:46.437Z,5.53
2019-03-06T08:13:26.102Z,5.13
2019-03-06T08:16:17.273Z,6.10
2019-03-06T08:19:07.617Z,5.73
2019-03-06T08:22:02.237Z,6.73
2019-03-06T08:24:56.662Z,5.70
2019-03-06T08:27:26.237Z,6.30
2019-03-06T08:29:55.833Z,6.87
2019-03-06T08:32:35.611Z,7.03
2019-03-06T08:35:05.669Z,7.07
2019-03-06T08:37:35.062Z,7.33
2019-03-06T08:40:05.137Z,8.47
2019-03-06T08:42:34.567Z,12.73
2019-03-06T08:45:05.134Z,10.77
2019-03-06T08:47:42.768Z,10.43
2019-03-06T08:50:23.609Z,12.00
2019-03-06T08:53:10.820Z,12.30
2019-03-06T08:55:48.977Z,11.03
2019-03-06T08:58:35.255Z,11.93
2019-03-06T09:02:00.454Z,12.33
2019-03-06T09:04:49.493Z,9.83
2019-03-06T09:07:36.007Z,8.70
2019-03-06T09:10:34.597Z,12.07
2019-03-06T09:13:21.885Z,13.53
2019-03-06T09:16:28.641Z,14.17
2019-03-06T09:19:17.024Z,12.30
2019-03-06T09:22:03.850Z,12.27
2019-03-06T09:24:50.844Z,40.60
2019-03-06T09:27:31.462Z,35.87
2019-03-06T09:30:19.669Z,13.57
2019-03-06T09:33:07.045Z,9.03
2019-03-06T09:35:45.507Z,7.13
2019-03-06T09:38:33.982Z,7.77
2019-03-06T09:41:20.967Z,7.53
2019-03-06T09:43:58.063Z,8.10
2019-03-06T09:46:55.421Z,7.50
2019-03-06T09:49:52.840Z,8.43
2019-03-06T09:52:40.109Z,8.43
2019-03-06T09:55:29.003Z,8.67
2019-03-06T09:58:08.935Z,9.47
2019-03-06T10:01:09.487Z,10.60
2019-03-06T10:04:05.071Z,12.67
2019-03-06T10:06:51.730Z,10.10
2019-03-06T10:09:38.594Z,8.97
2019-03-06T10:12:35.791Z,10.40
2019-03-06T10:15:28.279Z,11.87
2019-03-06T10:18:08.214Z,11.50
2019-03-06T10:20:37.628Z,11.73
2019-03-06T10:23:08.386Z,12.60
2019-03-06T10:25:37.834Z,11.57
2019-03-06T10:28:07.267Z,12.97
2019-03-06T10:30:36.801Z,12.70
2019-03-06T10:33:06.247Z,14.53
2019-03-06T10:35:35.738Z,13.80
2019-03-06T10:38:05.659Z,12.50
2019-03-06T10:40:35.082Z,13.77
2019-03-06T10:43:04.828Z,15.67
2019-03-06T10:45:42.031Z,15.57
2019-03-06T10:48:06.926Z,14.27
2019-03-06T10:50:36.423Z,16.77
2019-03-06T10:53:05.845Z,14.50
2019-03-06T10:55:35.326Z,14.33
2019-03-06T10:58:05.718Z,14.57
2019-03-06T11:00:38.589Z,16.77
2019-03-06T11:03:08.142Z,16.30
2019-03-06T11:05:37.690Z,15.97
2019-03-06T11:08:07.512Z,16.60
2019-03-06T11:10:37.052Z,15.73
2019-03-06T11:13:11.290Z,15.50
2019-03-06T11:15:41.317Z,17.90
2019-03-06T11:18:11.394Z,17.50
2019-03-06T11:20:41.456Z,17.80
2019-03-06T11:23:12.148Z,19.67
2019-03-06T11:25:41.936Z,18.97
2019-03-06T11:28:12.582Z,18.33
2019-03-06T11:30:46.215Z,21.50
2019-03-06T11:33:16.859Z,19.47
2019-03-06T11:35:46.849Z,19.97
2019-03-06T11:38:16.480Z,21.37
2019-03-06T11:40:46.122Z,20.37
2019-03-06T11:43:20.447Z,21.63
2019-03-06T11:45:49.949Z,22.57
2019-03-06T11:48:19.980Z,24.67
2019-03-06T11:50:49.647Z,18.13
2019-03-06T11:53:19.148Z,18.13
2019-03-06T11:55:49.135Z,17.97
2019-03-06T11:58:18.833Z,18.53
2019-03-06T12:00:49.740Z,18.87
2019-03-06T12:03:38.230Z,21.20
2019-03-06T12:06:07.675Z,23.27
2019-03-06T12:08:45.659Z,25.13
2019-03-06T12:11:08.508Z,25.17
2019-03-06T12:13:38.172Z,23.00
2019-03-06T12:16:07.782Z,19.67
2019-03-06T12:18:37.212Z,18.73
2019-03-06T12:21:06.687Z,18.97
2019-03-06T12:23:36.094Z,21.90
2019-03-06T12:26:05.938Z,20.00
2019-03-06T12:28:35.472Z,19.70
2019-03-06T12:31:07.526Z,21.77
2019-03-06T12:33:37.008Z,20.97
2019-03-06T12:36:06.757Z,22.03
2019-03-06T12:38:36.332Z,19.87
2019-03-06T12:41:06.352Z,18.80
2019-03-06T12:43:35.776Z,18.20
2019-03-06T12:46:25.304Z,19.00
2019-03-06T12:49:00.387Z,17.57
2019-03-06T12:51:30.856Z,16.80
2019-03-06T12:54:00.240Z,17.13
2019-03-06T12:56:30.088Z,16.43
2019-03-06T12:58:59.525Z,17.00
2019-03-06T13:01:29.021Z,14.87
2019-03-06T13:03:58.447Z,15.63
2019-03-06T13:06:27.925Z,14.73
2019-03-06T13:08:58.812Z,14.07
2019-03-06T13:11:28.229Z,15.53
2019-03-06T13:13:57.653Z,14.70
2019-03-06T13:16:27.117Z,14.37
2019-03-06T13:18:56.719Z,14.30
2019-03-06T13:21:26.199Z,14.80
2019-03-06T13:23:55.617Z,15.97
2019-03-06T13:26:25.055Z,14.27
2019-03-06T13:28:57.724Z,12.23
2019-03-06T13:31:25.607Z,10.83
2019-03-06T13:34:12.981Z,11.30
2019-03-06T13:36:42.467Z,13.03
2019-03-06T13:39:11.915Z,14.63
2019-03-06T13:41:41.357Z,15.57
2019-03-06T13:44:10.967Z,13.58
2019-03-06T13:46:40.386Z,12.83
2019-03-06T13:49:09.847Z,15.53
2019-03-06T13:51:39.301Z,13.93
2019-03-06T13:54:08.176Z,15.65
2019-03-06T13:56:38.544Z,15.23
2019-03-06T13:59:08.255Z,12.90
2019-03-06T14:01:37.693Z,16.52
2019-03-06T14:04:06.593Z,15.30
2019-03-06T14:06:36.055Z,9.05
2019-03-06T14:09:08.905Z,8.53
2019-03-06T14:11:38.364Z,106.52
2019-03-06T14:14:07.808Z,10.45
2019-03-06T14:16:37.343Z,8.83
2019-03-06T14:19:06.757Z,8.60
2019-03-06T14:21:35.558Z,8.20
2019-03-06T14:24:05.116Z,8.80
2019-03-06T14:26:34.514Z,11.93
2019-03-06T14:29:04.085Z,22.10
2019-03-06T14:31:33.508Z,31.80
2019-03-06T14:34:02.917Z,9.85
2019-03-06T14:36:32.542Z,17.00
2019-03-06T14:39:01.916Z,7.62
2019-03-06T14:41:31.692Z,8.07
2019-03-06T14:44:00.553Z,47.65
2019-03-06T14:46:30.000Z,8.13
2019-03-06T14:48:59.408Z,8.03
2019-03-06T14:51:28.867Z,13.53
2019-03-06T14:53:58.314Z,8.70
2019-03-06T14:56:27.880Z,8.33
2019-03-06T14:58:57.326Z,10.20
2019-03-06T15:01:26.760Z,8.23
2019-03-06T15:03:56.314Z,8.38
2019-03-06T15:06:25.781Z,9.20
2019-03-06T15:08:55.240Z,8.73
2019-03-06T15:11:32.736Z,9.00
2019-03-06T15:13:55.762Z,10.53
2019-03-06T15:16:25.168Z,10.48
2019-03-06T15:18:54.582Z,10.65
2019-03-06T15:21:24.041Z,10.18
2019-03-06T15:23:53.813Z,10.80
2019-03-06T15:26:23.418Z,55.25
2019-03-06T15:28:52.912Z,14.97
2019-03-06T15:31:22.301Z,8.40
2019-03-06T15:33:51.803Z,16.17
2019-03-06T15:36:21.257Z,20.25
2019-03-06T15:38:50.816Z,31.10
2019-03-06T15:41:20.351Z,16.80
2019-03-06T15:43:49.781Z,17.17
2019-03-06T15:46:19.243Z,15.23
2019-03-06T15:48:48.669Z,9.70
2019-03-06T15:51:18.219Z,11.20
2019-03-06T15:53:47.651Z,11.63
2019-03-06T15:56:17.120Z,12.35
2019-03-06T15:58:46.581Z,11.90
2019-03-06T16:01:15.990Z,12.03
2019-03-06T16:03:45.375Z,13.32
2019-03-06T16:06:20.323Z,27.30
2019-03-06T16:08:46.138Z,25.57
2019-03-06T16:11:15.603Z,46.80
2019-03-06T16:13:45.072Z,39.03
2019-03-06T16:16:14.930Z,51.53
2019-03-06T16:18:44.370Z,48.92
2019-03-06T16:21:14.320Z,34.27
2019-03-06T16:23:43.802Z,36.93
2019-03-06T16:26:13.226Z,41.63
2019-03-06T16:28:42.694Z,52.55
2019-03-06T16:31:12.156Z,40.78
2019-03-06T16:33:42.175Z,35.10
2019-03-06T16:36:11.618Z,46.37
2019-03-06T16:38:41.096Z,42.45
2019-03-06T16:41:10.695Z,46.02
2019-03-06T16:43:40.183Z,51.42
2019-03-06T16:46:09.671Z,52.08
2019-03-06T16:48:39.153Z,47.45
2019-03-06T16:51:10.496Z,43.58
2019-03-06T16:53:39.988Z,43.97
2019-03-06T16:56:09.579Z,48.70
2019-03-06T16:58:39.044Z,47.75
2019-03-06T17:01:08.609Z,45.98
2019-03-06T17:03:38.082Z,47.85
2019-03-06T17:06:07.759Z,51.90
2019-03-06T17:08:37.382Z,58.20
2019-03-06T17:11:07.284Z,61.98
2019-03-06T17:13:36.844Z,54.30
2019-03-06T17:16:06.322Z,56.63
2019-03-06T17:18:35.807Z,55.50
2019-03-06T17:21:05.475Z,74.07
2019-03-06T17:23:35.101Z,107.90
2019-03-06T17:26:04.716Z,69.40
2019-03-06T17:28:34.764Z,51.15
2019-03-06T17:31:04.275Z,56.33
2019-03-06T17:33:33.776Z,57.88
2019-03-06T17:36:03.364Z,70.83
2019-03-06T17:38:32.809Z,71.30
2019-03-06T17:41:02.277Z,67.92
2019-03-06T17:43:31.769Z,59.88
2019-03-06T17:46:01.252Z,55.67
2019-03-06T17:48:31.177Z,54.13
2019-03-06T17:51:00.885Z,49.58
2019-03-06T17:53:30.418Z,49.20
2019-03-06T17:56:01.118Z,47.27
2019-03-06T17:58:30.593Z,47.40
2019-03-06T18:01:06.134Z,50.85
2019-03-06T18:03:57.426Z,47.62
2019-03-06T18:06:27.161Z,47.25
2019-03-06T18:08:56.639Z,49.38
2019-03-06T18:11:26.122Z,53.23
2019-03-06T18:13:55.829Z,47.38
2019-03-06T18:16:25.245Z,53.15
2019-03-06T18:18:55.150Z,55.45
2019-03-06T18:21:24.534Z,51.42
2019-03-06T18:23:54.169Z,46.30
2019-03-06T18:26:23.603Z,47.55
2019-03-06T18:28:54.629Z,47.53
2019-03-06T18:31:24.276Z,50.63
2019-03-06T18:33:53.821Z,51.02
2019-03-06T18:36:23.657Z,51.42
2019-03-06T18:38:53.126Z,45.98
2019-03-06T18:41:22.537Z,46.53
2019-03-06T18:43:52.271Z,47.13
2019-03-06T18:46:21.728Z,50.88
2019-03-06T18:48:51.263Z,47.98
2019-03-06T18:51:20.736Z,52.33
2019-03-06T18:53:50.145Z,52.90
2019-03-06T18:56:19.619Z,48.43
2019-03-06T18:58:49.224Z,49.23
2019-03-06T19:01:18.726Z,49.45
2019-03-06T19:03:48.131Z,57.63
2019-03-06T19:06:17.648Z,55.00
2019-03-06T19:08:47.523Z,46.92
2019-03-06T19:11:17.343Z,49.33
2019-03-06T19:13:46.844Z,49.42
2019-03-06T19:16:16.368Z,45.23
2019-03-06T19:18:45.809Z,46.68
2019-03-06T19:21:15.301Z,42.58
2019-03-06T19:23:45.899Z,45.27
2019-03-06T19:26:15.789Z,43.30
2019-03-06T19:28:45.240Z,48.23
2019-03-06T19:31:14.985Z,44.77
2019-03-06T19:33:44.484Z,45.25
2019-03-06T19:36:14.032Z,48.53
2019-03-06T19:38:43.453Z,50.38
2019-03-06T19:41:12.907Z,50.60
2019-03-06T19:43:42.348Z,58.13
2019-03-06T19:46:12.166Z,61.00
2019-03-06T19:48:41.654Z,58.17
2019-03-06T19:51:11.569Z,52.95
2019-03-06T19:53:41.126Z,52.27
2019-03-06T19:56:10.663Z,49.40
2019-03-06T19:58:40.095Z,40.03
2019-03-06T20:01:09.681Z,38.55
2019-03-06T20:03:39.071Z,39.05
2019-03-06T20:06:08.638Z,39.20
2019-03-06T20:08:38.572Z,39.40
2019-03-06T20:11:08.042Z,38.20
2019-03-06T20:13:37.579Z,38.70
2019-03-06T20:16:07.126Z,37.70
2019-03-06T20:18:36.582Z,38.83
2019-03-06T20:21:06.032Z,40.92
2019-03-06T20:23:35.829Z,39.05
2019-03-06T20:26:13.785Z,38.40
2019-03-06T20:28:36.388Z,43.60
2019-03-06T20:31:06.077Z,46.55
2019-03-06T20:33:35.535Z,47.90
2019-03-06T20:36:05.000Z,44.77
2019-03-06T20:38:34.461Z,43.10
2019-03-06T20:41:03.864Z,39.18
2019-03-06T20:43:33.340Z,39.67
2019-03-06T20:46:03.062Z,38.90
2019-03-06T20:48:32.698Z,39.60
2019-03-06T20:51:02.145Z,40.40
2019-03-06T20:53:31.576Z,39.90
2019-03-06T20:56:01.078Z,38.55
2019-03-06T20:58:30.861Z,39.13
2019-03-06T21:01:00.310Z,39.73
2019-03-06T21:03:29.749Z,39.48
2019-03-06T21:05:59.450Z,39.80
2019-03-06T21:08:28.884Z,40.43
2019-03-06T21:10:58.333Z,39.85
2019-03-06T21:13:27.803Z,38.60
2019-03-06T21:15:57.229Z,41.33
2019-03-06T21:18:27.242Z,39.50
2019-03-06T21:20:57.026Z,40.10
2019-03-06T21:23:26.431Z,38.88
2019-03-06T21:25:56.227Z,40.43
2019-03-06T21:28:25.688Z,47.73
2019-03-06T21:30:55.137Z,40.40
2019-03-06T21:33:24.653Z,40.35
2019-03-06T21:35:54.584Z,41.60
2019-03-06T21:38:24.321Z,38.42
2019-03-06T21:40:53.927Z,41.75
2019-03-06T21:43:23.854Z,42.08
2019-03-06T21:45:53.293Z,42.45
2019-03-06T21:48:23.031Z,43.10
2019-03-06T21:50:53.144Z,43.08
2019-03-06T21:53:22.591Z,42.83
2019-03-06T21:55:52.030Z,42.78
2019-03-06T21:58:21.643Z,42.15
2019-03-06T22:00:51.089Z,41.65
2019-03-06T22:03:20.538Z,42.65
2019-03-06T22:05:50.474Z,43.38
2019-03-06T22:08:19.946Z,44.03
2019-03-06T22:10:49.388Z,44.58
2019-03-06T22:13:19.108Z,41.15
2019-03-06T22:15:48.554Z,41.25
2019-03-06T22:18:17.990Z,42.20
2019-03-06T22:20:47.582Z,42.33
2019-03-06T22:23:19.103Z,42.83
2019-03-06T22:25:48.236Z,42.93
2019-03-06T22:28:17.673Z,41.63
2019-03-06T22:30:47.149Z,43.35
2019-03-06T22:33:16.911Z,42.80
2019-03-06T22:35:46.335Z,42.60
2019-03-06T22:38:15.814Z,42.43
2019-03-06T22:40:45.505Z,42.83
2019-03-06T22:43:14.871Z,42.15
2019-03-06T22:45:44.399Z,42.78
2019-03-06T22:48:14.107Z,41.70
2019-03-06T22:50:43.554Z,41.77
2019-03-06T22:53:12.977Z,40.10
2019-03-06T22:55:42.863Z,38.60
2019-03-06T22:58:12.286Z,38.88
2019-03-06T23:00:55.884Z,36.77
2019-03-06T23:03:26.000Z,36.88
2019-03-06T23:05:55.480Z,35.60
2019-03-06T23:08:24.897Z,35.80
2019-03-06T23:10:54.533Z,34.50
2019-03-06T23:13:24.588Z,36.07
2019-03-06T23:15:54.025Z,34.33
2019-03-06T23:18:23.408Z,33.13
2019-03-06T23:20:52.782Z,34.10
2019-03-06T23:23:22.252Z,33.20
2019-03-06T23:25:51.684Z,32.48
2019-03-06T23:28:21.126Z,31.05
2019-03-06T23:30:50.541Z,32.48
2019-03-06T23:33:19.976Z,29.90
2019-03-06T23:35:49.417Z,30.82
2019-03-06T23:38:18.911Z,31.27
2019-03-06T23:40:48.685Z,31.30
2019-03-06T23:43:18.324Z,31.57
2019-03-06T23:45:47.774Z,31.25
2019-03-06T23:48:17.192Z,32.55
2019-03-06T23:50:47.280Z,31.00
2019-03-06T23:53:18.665Z,30.02
2019-03-06T23:55:48.169Z,28.35
2019-03-06T23:58:17.590Z,28.70
